createdAt,value
2024-04-19T00:00:57.588Z,1.60
2024-04-19T00:03:25.157Z,1.47
2024-04-19T00:05:52.621Z,1.43
2024-04-19T00:08:19.882Z,1.33
2024-04-19T00:10:47.598Z,1.60
2024-04-19T00:13:14.981Z,2.00
2024-04-19T00:15:45.415Z,1.83
2024-04-19T00:18:12.973Z,1.43
2024-04-19T00:20:42.656Z,1.40
2024-04-19T00:23:09.890Z,1.50
2024-04-19T00:25:38.609Z,1.73
2024-04-19T00:28:05.743Z,1.53
2024-04-19T00:30:33.040Z,1.53
2024-04-19T00:33:08.108Z,1.60
2024-04-19T00:35:41.214Z,1.50
2024-04-19T00:38:08.662Z,1.60
2024-04-19T00:40:35.894Z,1.80
2024-04-19T00:43:03.139Z,1.63
2024-04-19T00:45:35.090Z,1.47
2024-04-19T00:48:13.687Z,1.50
2024-04-19T00:50:41.740Z,1.67
2024-04-19T00:53:09.242Z,1.43
2024-04-19T00:55:36.667Z,1.60
2024-04-19T00:58:04.204Z,1.40
2024-04-19T01:00:32.127Z,1.40
2024-04-19T01:02:59.375Z,1.60
2024-04-19T01:05:26.951Z,1.70
2024-04-19T01:07:54.185Z,1.67
2024-04-19T01:10:21.514Z,1.93
2024-04-19T01:12:48.939Z,1.70
2024-04-19T01:15:19.798Z,1.83
2024-04-19T01:17:47.142Z,1.70
2024-04-19T01:20:14.724Z,2.27
2024-04-19T01:22:44.017Z,2.23
2024-04-19T01:25:13.066Z,1.90
2024-04-19T01:27:39.925Z,2.20
2024-04-19T01:30:07.594Z,2.30
2024-04-19T01:32:34.899Z,2.20
2024-04-19T01:35:02.152Z,1.97
2024-04-19T01:37:30.566Z,1.77
2024-04-19T01:39:57.817Z,2.13
2024-04-19T01:42:25.263Z,2.57
2024-04-19T01:44:52.519Z,2.53
2024-04-19T01:47:20.499Z,2.37
2024-04-19T01:49:47.837Z,1.70
2024-04-19T01:52:15.176Z,1.93
2024-04-19T01:54:42.531Z,1.87
2024-04-19T01:57:10.298Z,1.93
2024-04-19T01:59:38.530Z,2.07
2024-04-19T02:02:05.827Z,2.53
2024-04-19T02:04:34.117Z,2.40
2024-04-19T02:07:01.806Z,2.90
2024-04-19T02:09:29.299Z,2.30
2024-04-19T02:11:56.554Z,2.50
2024-04-19T02:14:24.076Z,2.63
2024-04-19T02:16:51.362Z,2.97
2024-04-19T02:19:18.681Z,2.67
2024-04-19T02:21:46.163Z,2.83
2024-04-19T02:24:13.623Z,2.60
2024-04-19T02:26:41.821Z,2.30
2024-04-19T02:29:28.622Z,1.87
2024-04-19T02:31:56.364Z,2.40
2024-04-19T02:34:23.814Z,3.00
2024-04-19T02:36:50.681Z,2.47
2024-04-19T02:39:18.080Z,3.07
2024-04-19T02:41:45.458Z,3.07
2024-04-19T02:44:12.709Z,2.77
2024-04-19T02:46:39.981Z,2.60
2024-04-19T02:49:07.442Z,3.07
2024-04-19T02:51:34.742Z,3.47
2024-04-19T02:54:02.678Z,3.43
2024-04-19T02:56:29.947Z,3.57
2024-04-19T02:58:57.247Z,4.00
2024-04-19T03:01:24.562Z,3.30
2024-04-19T03:03:51.963Z,3.20
2024-04-19T03:06:18.877Z,3.47
2024-04-19T03:08:46.288Z,3.50
2024-04-19T03:11:13.641Z,3.50
2024-04-19T03:13:40.874Z,2.70
2024-04-19T03:16:10.580Z,3.60
2024-04-19T03:18:37.892Z,3.70
2024-04-19T03:21:05.307Z,3.10
2024-04-19T03:23:32.725Z,3.47
2024-04-19T03:26:00.682Z,2.90
2024-04-19T03:28:28.531Z,2.77
2024-04-19T03:30:55.829Z,3.17
2024-04-19T03:33:23.345Z,3.00
2024-04-19T03:35:50.828Z,3.37
2024-04-19T03:38:19.261Z,3.50
2024-04-19T03:40:59.541Z,3.30
2024-04-19T03:43:34.270Z,3.77
2024-04-19T03:46:02.524Z,3.87
2024-04-19T03:48:29.992Z,3.40
2024-04-19T03:50:57.407Z,4.03
2024-04-19T03:53:24.428Z,3.10
2024-04-19T03:55:51.703Z,3.83
2024-04-19T03:58:18.990Z,3.77
2024-04-19T04:00:46.944Z,3.90
2024-04-19T04:03:14.427Z,3.97
2024-04-19T04:05:41.777Z,4.20
2024-04-19T04:08:09.028Z,4.17
2024-04-19T04:10:37.154Z,3.83
2024-04-19T04:13:04.735Z,3.67
2024-04-19T04:15:32.148Z,4.17
2024-04-19T04:17:59.775Z,4.07
2024-04-19T04:20:27.069Z,4.37
2024-04-19T04:22:54.371Z,4.53
2024-04-19T04:25:21.937Z,4.40
2024-04-19T04:27:49.232Z,4.80
2024-04-19T04:30:16.567Z,4.33
2024-04-19T04:32:44.408Z,4.80
2024-04-19T04:35:11.789Z,4.13
2024-04-19T04:37:40.216Z,5.37
2024-04-19T04:40:07.970Z,4.17
2024-04-19T04:42:37.902Z,4.20
2024-04-19T04:45:06.893Z,3.97
2024-04-19T04:47:34.193Z,4.60
2024-04-19T04:50:01.596Z,3.97
2024-04-19T04:52:29.483Z,4.40
2024-04-19T04:54:56.892Z,4.50
2024-04-19T04:57:24.291Z,4.47
2024-04-19T04:59:51.621Z,4.10
2024-04-19T05:02:18.917Z,4.20
2024-04-19T05:04:46.730Z,3.93
2024-04-19T05:07:14.055Z,3.73
2024-04-19T05:09:41.591Z,4.53
2024-04-19T05:12:09.756Z,3.20
2024-04-19T05:14:37.043Z,2.80
2024-04-19T05:17:04.286Z,2.80
2024-04-19T05:19:31.510Z,3.17
2024-04-19T05:21:58.348Z,2.83
2024-04-19T05:24:25.655Z,3.67
2024-04-19T05:26:53.002Z,2.80
2024-04-19T05:29:20.629Z,2.63
2024-04-19T05:31:48.162Z,3.17
2024-04-19T05:34:15.458Z,3.27
2024-04-19T05:36:42.755Z,2.63
2024-04-19T05:39:09.623Z,2.83
2024-04-19T05:41:36.893Z,2.60
2024-04-19T05:44:05.046Z,2.23
2024-04-19T05:46:32.326Z,3.00
2024-04-19T05:48:59.726Z,2.53
2024-04-19T05:51:27.267Z,1.93
2024-04-19T05:53:54.635Z,1.80
2024-04-19T05:56:21.906Z,2.07
2024-04-19T05:58:49.166Z,1.77
2024-04-19T06:01:16.533Z,1.40
2024-04-19T06:03:43.967Z,1.40
2024-04-19T06:06:13.227Z,1.30
2024-04-19T06:08:41.789Z,1.80
2024-04-19T06:11:09.341Z,1.30
2024-04-19T06:13:38.164Z,1.77
2024-04-19T06:16:06.238Z,1.70
2024-04-19T06:18:33.738Z,1.23
2024-04-19T06:21:01.262Z,1.40
2024-04-19T06:23:28.610Z,1.13
2024-04-19T06:25:57.205Z,1.37
2024-04-19T06:28:24.466Z,1.77
2024-04-19T06:30:51.874Z,1.10
2024-04-19T06:33:19.279Z,1.30
2024-04-19T06:35:46.588Z,1.17
2024-04-19T06:38:13.860Z,1.27
2024-04-19T06:40:41.481Z,1.23
2024-04-19T06:43:08.765Z,1.00
2024-04-19T06:45:38.512Z,1.27
2024-04-19T06:48:06.198Z,1.30
2024-04-19T06:50:33.484Z,1.50
2024-04-19T06:53:00.738Z,1.30
2024-04-19T06:55:28.123Z,1.30
2024-04-19T06:57:58.241Z,1.60
2024-04-19T07:00:37.051Z,1.20
2024-04-19T07:03:13.482Z,1.30
2024-04-19T07:05:40.958Z,1.87
2024-04-19T07:08:08.213Z,1.50
2024-04-19T07:10:38.964Z,2.10
2024-04-19T07:13:06.476Z,1.87
2024-04-19T07:15:33.839Z,1.90
2024-04-19T07:18:02.448Z,1.97
2024-04-19T07:20:29.812Z,1.90
2024-04-19T07:22:57.166Z,2.00
2024-04-19T07:25:26.326Z,2.20
2024-04-19T07:27:53.693Z,2.17
2024-04-19T07:30:20.990Z,1.90
2024-04-19T07:32:48.529Z,2.00
2024-04-19T07:35:16.029Z,1.97
2024-04-19T07:37:43.287Z,1.80
2024-04-19T07:40:10.837Z,1.73
2024-04-19T07:42:38.197Z,1.70
2024-04-19T07:45:05.960Z,2.00
2024-04-19T07:47:33.374Z,1.90
2024-04-19T07:50:00.699Z,1.50
2024-04-19T07:52:28.036Z,1.60
2024-04-19T07:54:55.392Z,1.90
2024-04-19T07:57:22.896Z,1.23
2024-04-19T07:59:50.252Z,2.00
2024-04-19T08:02:19.240Z,1.90
2024-04-19T08:04:46.640Z,1.80
2024-04-19T08:07:23.892Z,1.40
2024-04-19T08:09:55.781Z,1.53
2024-04-19T08:12:23.179Z,1.80
2024-04-19T08:14:50.495Z,1.47
2024-04-19T08:17:17.921Z,1.97
2024-04-19T08:19:45.189Z,2.07
2024-04-19T08:22:12.482Z,2.40
2024-04-19T08:24:40.247Z,1.63
2024-04-19T08:27:07.788Z,1.97
2024-04-19T08:29:36.154Z,2.07
2024-04-19T08:32:06.935Z,2.20
2024-04-19T08:34:34.586Z,1.93
2024-04-19T08:37:03.442Z,1.97
2024-04-19T08:39:30.897Z,2.17
2024-04-19T08:42:02.037Z,1.77
2024-04-19T08:44:30.232Z,2.00
2024-04-19T08:46:58.275Z,2.40
2024-04-19T08:49:26.070Z,2.17
2024-04-19T08:52:04.389Z,2.30
2024-04-19T08:54:43.516Z,2.60
2024-04-19T08:57:11.047Z,2.90
2024-04-19T08:59:38.885Z,3.67
2024-04-19T09:02:06.577Z,2.90
2024-04-19T09:04:33.934Z,4.00
2024-04-19T09:07:01.236Z,4.27
2024-04-19T09:09:28.884Z,6.57
2024-04-19T09:11:56.325Z,8.33
2024-04-19T09:14:23.557Z,8.37
2024-04-19T09:16:50.809Z,7.20
2024-04-19T09:19:18.066Z,10.03
2024-04-19T09:21:46.660Z,8.70
2024-04-19T09:24:14.718Z,8.77
2024-04-19T09:26:42.545Z,8.97
2024-04-19T09:29:09.952Z,9.43
2024-04-19T09:31:38.825Z,10.53
2024-04-19T09:34:06.398Z,10.67
2024-04-19T09:36:33.980Z,9.77
2024-04-19T09:39:02.077Z,10.13
2024-04-19T09:41:29.539Z,10.10
2024-04-19T09:43:59.559Z,10.03
2024-04-19T09:46:33.803Z,10.93
2024-04-19T09:49:05.120Z,11.90
2024-04-19T09:51:52.723Z,11.33
2024-04-19T09:54:23.774Z,11.23
2024-04-19T09:56:57.557Z,9.10
2024-04-19T09:59:25.653Z,9.27
2024-04-19T10:01:53.212Z,8.63
2024-04-19T10:04:21.598Z,7.17
2024-04-19T10:06:49.408Z,6.50
2024-04-19T10:09:28.944Z,5.50
2024-04-19T10:11:56.751Z,5.30
2024-04-19T10:14:24.825Z,4.87
2024-04-19T10:16:52.258Z,3.43
2024-04-19T10:19:19.520Z,3.00
2024-04-19T10:21:46.837Z,3.37
2024-04-19T10:24:24.328Z,2.40
2024-04-19T10:26:52.243Z,2.10
2024-04-19T10:29:20.471Z,2.47
2024-04-19T10:31:52.207Z,2.30
2024-04-19T10:34:20.025Z,2.20
2024-04-19T10:36:47.778Z,1.43
2024-04-19T10:39:16.039Z,1.10
2024-04-19T10:41:52.374Z,1.30
2024-04-19T10:44:19.735Z,1.73
2024-04-19T10:46:49.205Z,1.70
2024-04-19T10:49:17.752Z,1.50
2024-04-19T10:51:45.528Z,1.50
2024-04-19T10:54:13.470Z,1.00
2024-04-19T10:56:40.731Z,1.10
2024-04-19T10:59:08.650Z,1.03
2024-04-19T11:01:39.557Z,0.90
2024-04-19T11:04:07.201Z,1.10
2024-04-19T11:06:35.448Z,1.17
2024-04-19T11:09:03.068Z,1.03
2024-04-19T11:11:38.954Z,1.40
2024-04-19T11:14:09.833Z,1.17
2024-04-19T11:16:37.277Z,0.90
2024-04-19T11:19:05.570Z,1.20
2024-04-19T11:21:34.437Z,0.93
2024-04-19T11:24:01.862Z,1.10
2024-04-19T11:26:29.199Z,1.00
2024-04-19T11:28:57.876Z,0.90
2024-04-19T11:31:25.180Z,0.80
2024-04-19T11:33:55.753Z,1.10
2024-04-19T11:36:25.946Z,1.37
2024-04-19T11:38:53.207Z,0.80
2024-04-19T11:41:20.494Z,0.80
2024-04-19T11:43:47.766Z,0.50
2024-04-19T11:46:21.789Z,0.57
2024-04-19T11:48:49.319Z,0.73
2024-04-19T11:51:16.630Z,0.47
2024-04-19T11:53:43.940Z,0.50
2024-04-19T11:56:11.185Z,0.43
2024-04-19T11:58:38.499Z,0.40
2024-04-19T12:01:06.223Z,0.40
2024-04-19T12:03:34.527Z,0.50
2024-04-19T12:06:01.727Z,0.87
2024-04-19T12:08:29.035Z,1.50
2024-04-19T12:10:56.314Z,0.70
2024-04-19T12:18:24.212Z,0.90
2024-04-19T12:20:52.709Z,0.90
2024-04-19T12:23:22.618Z,0.60
2024-04-19T12:25:53.081Z,0.50
2024-04-19T12:28:26.114Z,0.40
2024-04-19T12:30:55.205Z,0.63
2024-04-19T12:33:23.067Z,0.43
2024-04-19T12:35:50.889Z,0.40
2024-04-19T12:38:18.179Z,0.50
2024-04-19T12:40:45.456Z,0.30
2024-04-19T12:43:13.549Z,0.40
2024-04-19T12:45:40.804Z,0.30
2024-04-19T12:48:08.855Z,0.20
2024-04-19T12:50:37.021Z,0.40
2024-04-19T12:53:04.881Z,0.20
2024-04-19T12:55:32.820Z,0.40
2024-04-19T12:58:00.539Z,0.37
2024-04-19T13:00:31.568Z,0.40
2024-04-19T13:02:59.019Z,0.50
2024-04-19T13:05:27.221Z,0.50
2024-04-19T13:07:54.585Z,0.30
2024-04-19T13:10:23.344Z,0.30
2024-04-19T13:12:51.016Z,0.47
2024-04-19T13:15:18.442Z,0.50
2024-04-19T13:17:45.515Z,0.40
2024-04-19T13:20:12.940Z,0.20
2024-04-19T13:22:41.928Z,0.60
2024-04-19T13:25:09.291Z,0.57
2024-04-19T13:27:36.626Z,1.07
2024-04-19T13:30:04.354Z,0.50
2024-04-19T13:32:32.724Z,0.60
2024-04-19T13:35:00.163Z,0.40
2024-04-19T13:37:27.587Z,0.40
2024-04-19T13:39:54.917Z,0.40
2024-04-19T13:42:22.321Z,0.47
2024-04-19T13:44:49.730Z,0.70
2024-04-19T13:47:17.032Z,0.60
2024-04-19T13:49:45.118Z,0.60
2024-04-19T13:52:12.516Z,0.40
2024-04-19T13:54:40.100Z,0.37
2024-04-19T13:57:07.574Z,0.40
2024-04-19T13:59:34.890Z,0.30
2024-04-19T14:02:02.281Z,0.37
2024-04-19T14:04:29.519Z,0.40
2024-04-19T14:06:58.838Z,0.30
2024-04-19T14:09:27.220Z,0.97
2024-04-19T14:11:55.289Z,0.40
2024-04-19T14:14:22.842Z,0.50
2024-04-19T14:16:51.021Z,0.53
2024-04-19T14:19:19.781Z,0.53
2024-04-19T14:21:49.086Z,0.50
2024-04-19T14:24:16.437Z,0.50
2024-04-19T14:26:45.928Z,0.50
2024-04-19T14:29:13.222Z,0.53
2024-04-19T14:31:40.525Z,0.40
2024-04-19T14:34:08.065Z,0.70
2024-04-19T14:36:35.882Z,0.50
2024-04-19T14:39:03.233Z,0.50
2024-04-19T14:41:32.071Z,0.50
2024-04-19T14:43:59.559Z,0.50
2024-04-19T14:46:26.875Z,0.70
2024-04-19T14:48:54.861Z,0.30
2024-04-19T14:51:22.585Z,0.37
2024-04-19T14:53:50.241Z,0.57
2024-04-19T14:56:17.857Z,0.63
2024-04-19T14:58:52.776Z,0.50
2024-04-19T15:01:27.441Z,0.40
2024-04-19T15:03:54.773Z,0.50
2024-04-19T15:06:22.106Z,1.03
2024-04-19T15:08:52.395Z,0.80
2024-04-19T15:11:19.711Z,0.80
2024-04-19T15:13:48.288Z,0.67
2024-04-19T15:16:15.959Z,0.70
2024-04-19T15:18:43.403Z,1.07
2024-04-19T15:21:10.666Z,1.10
2024-04-19T15:23:38.268Z,0.70
2024-04-19T15:26:05.778Z,0.80
2024-04-19T15:28:33.050Z,1.00
2024-04-19T15:31:00.673Z,0.63
2024-04-19T15:33:27.978Z,1.43
2024-04-19T15:35:55.321Z,1.60
2024-04-19T15:38:22.595Z,1.73
2024-04-19T15:40:49.848Z,1.70
2024-04-19T15:43:17.149Z,2.83
2024-04-19T15:45:46.608Z,1.30
2024-04-19T15:48:17.027Z,1.87
2024-04-19T15:50:44.404Z,1.47
2024-04-19T15:53:11.710Z,1.53
2024-04-19T15:55:38.947Z,1.40
2024-04-19T15:58:06.390Z,1.40
2024-04-19T16:00:33.712Z,1.50
2024-04-19T16:03:00.727Z,1.70
2024-04-19T16:05:28.032Z,1.40
2024-04-19T16:07:55.362Z,1.70
2024-04-19T16:10:22.609Z,1.53
2024-04-19T16:12:49.902Z,1.70
2024-04-19T16:15:17.279Z,1.23
2024-04-19T16:17:45.276Z,1.77
2024-04-19T16:20:15.327Z,1.17
2024-04-19T16:22:44.251Z,0.80
2024-04-19T16:25:11.163Z,0.90
2024-04-19T16:27:38.561Z,1.00
2024-04-19T16:30:06.487Z,0.70
2024-04-19T16:32:33.913Z,0.80
2024-04-19T16:35:01.420Z,0.70
2024-04-19T16:37:29.699Z,0.90
2024-04-19T16:39:58.330Z,0.80
2024-04-19T16:42:29.420Z,0.80
2024-04-19T16:44:56.789Z,0.63
2024-04-19T16:47:26.318Z,0.87
2024-04-19T16:49:54.288Z,0.90
2024-04-19T16:52:21.750Z,0.80
2024-04-19T16:54:48.755Z,0.80
2024-04-19T16:57:16.064Z,0.73
2024-04-19T16:59:43.361Z,0.50
2024-04-19T17:02:10.674Z,0.63
2024-04-19T17:04:38.245Z,0.70
2024-04-19T17:07:05.770Z,0.70
2024-04-19T17:09:33.114Z,1.30
2024-04-19T17:12:01.076Z,1.10
2024-04-19T17:14:28.418Z,1.10
2024-04-19T17:16:56.000Z,0.70
2024-04-19T17:19:24.958Z,0.67
2024-04-19T17:21:52.379Z,0.93
2024-04-19T17:24:20.010Z,0.60
2024-04-19T17:26:47.431Z,0.70
2024-04-19T17:29:14.715Z,0.80
2024-04-19T17:31:41.979Z,0.70
2024-04-19T17:34:08.834Z,0.70
2024-04-19T17:36:36.178Z,0.90
2024-04-19T17:39:03.658Z,1.03
2024-04-19T17:41:30.871Z,0.67
2024-04-19T17:43:58.224Z,0.50
2024-04-19T17:46:25.536Z,0.67
2024-04-19T17:48:52.834Z,0.50
2024-04-19T17:51:20.502Z,0.60
2024-04-19T17:53:47.751Z,0.37
2024-04-19T17:56:14.977Z,0.60
2024-04-19T17:58:42.229Z,0.50
2024-04-19T18:01:09.590Z,0.50
2024-04-19T18:03:37.006Z,0.37
2024-04-19T18:06:04.949Z,0.80
2024-04-19T18:08:32.299Z,0.47
2024-04-19T18:11:01.175Z,0.53
2024-04-19T18:13:28.703Z,0.70
2024-04-19T18:16:00.980Z,0.70
2024-04-19T18:18:28.597Z,0.60
2024-04-19T18:20:55.985Z,0.60
2024-04-19T18:23:23.589Z,0.90
2024-04-19T18:25:50.667Z,1.20
2024-04-19T18:28:19.648Z,0.93
2024-04-19T18:30:47.107Z,1.07
2024-04-19T18:33:14.433Z,1.37
2024-04-19T18:35:41.996Z,0.77
2024-04-19T18:38:10.034Z,1.10
2024-04-19T18:40:38.966Z,1.57
2024-04-19T18:43:07.998Z,1.20
2024-04-19T18:45:37.516Z,0.70
2024-04-19T18:48:05.052Z,1.07
2024-04-19T18:50:34.599Z,0.67
2024-04-19T18:53:02.256Z,0.83
2024-04-19T18:55:29.731Z,1.03
2024-04-19T18:57:57.147Z,0.80
2024-04-19T19:00:24.532Z,0.67
2024-04-19T19:02:52.434Z,0.87
2024-04-19T19:05:21.194Z,0.97
2024-04-19T19:07:49.689Z,0.93
2024-04-19T19:10:16.971Z,1.17
2024-04-19T19:12:46.630Z,0.77
2024-04-19T19:15:16.141Z,0.40
2024-04-19T19:17:43.934Z,1.00
2024-04-19T19:20:15.584Z,0.70
2024-04-19T19:22:46.264Z,0.87
2024-04-19T19:25:13.538Z,0.97
2024-04-19T19:27:44.104Z,1.00
2024-04-19T19:30:11.611Z,1.00
2024-04-19T19:32:39.142Z,0.93
2024-04-19T19:35:06.731Z,0.87
2024-04-19T19:37:34.041Z,0.97
2024-04-19T19:40:03.670Z,0.93
2024-04-19T19:42:31.103Z,0.63
2024-04-19T19:44:58.600Z,0.90
2024-04-19T19:47:26.052Z,1.10
2024-04-19T19:50:00.230Z,0.83
2024-04-19T19:52:27.705Z,0.83
2024-04-19T19:54:55.058Z,0.73
2024-04-19T19:57:22.380Z,0.70
2024-04-19T20:00:08.476Z,0.73
2024-04-19T20:02:54.427Z,0.73
2024-04-19T20:05:40.629Z,0.60
2024-04-19T20:08:08.028Z,0.67
2024-04-19T20:10:35.436Z,0.60
2024-04-19T20:13:02.733Z,1.20
2024-04-19T20:15:30.305Z,0.73
2024-04-19T20:17:58.568Z,0.97
2024-04-19T20:20:26.431Z,0.80
2024-04-19T20:22:53.996Z,0.67
2024-04-19T20:25:22.605Z,0.80
2024-04-19T20:27:50.432Z,0.83
2024-04-19T20:30:17.818Z,0.70
2024-04-19T20:32:45.287Z,0.90
2024-04-19T20:35:12.665Z,0.60
2024-04-19T20:37:40.050Z,0.97
2024-04-19T20:40:08.911Z,0.90
2024-04-19T20:42:35.903Z,0.73
2024-04-19T20:45:03.193Z,1.00
2024-04-19T20:47:33.584Z,0.73
2024-04-19T20:50:00.904Z,1.00
2024-04-19T20:52:28.163Z,0.90
2024-04-19T20:54:55.562Z,0.90
2024-04-19T20:57:22.847Z,0.80
2024-04-19T20:59:50.215Z,0.90
2024-04-19T21:02:19.003Z,0.87
2024-04-19T21:04:46.318Z,0.90
2024-04-19T21:07:13.729Z,1.03
2024-04-19T21:09:41.009Z,0.90
2024-04-19T21:12:08.590Z,0.60
2024-04-19T21:14:36.553Z,1.73
2024-04-19T21:17:03.914Z,0.83
2024-04-19T21:19:31.247Z,0.87
2024-04-19T21:21:58.629Z,0.87
2024-04-19T21:24:25.974Z,1.10
2024-04-19T21:26:53.245Z,0.63
2024-04-19T21:29:20.564Z,0.80
2024-04-19T21:31:47.776Z,1.27
2024-04-19T21:34:15.090Z,0.80
2024-04-19T21:36:46.575Z,0.73
2024-04-19T21:39:14.529Z,1.00
2024-04-19T21:41:42.005Z,0.90
2024-04-19T21:44:08.800Z,1.10
2024-04-19T21:46:36.161Z,1.13
2024-04-19T21:49:03.536Z,1.10
2024-04-19T21:51:31.028Z,1.17
2024-04-19T21:53:58.295Z,1.43
2024-04-19T21:56:25.519Z,0.90
2024-04-19T21:58:55.136Z,1.20
2024-04-19T22:01:22.602Z,1.07
2024-04-19T22:03:50.022Z,1.43
2024-04-19T22:06:17.558Z,1.30
2024-04-19T22:08:46.692Z,0.80
2024-04-19T22:11:13.992Z,1.17
2024-04-19T22:13:41.679Z,1.13
2024-04-19T22:16:11.214Z,1.00
2024-04-19T22:18:38.684Z,1.17
2024-04-19T22:21:09.106Z,1.30
2024-04-19T22:23:36.702Z,0.90
2024-04-19T22:26:07.688Z,1.30
2024-04-19T22:28:35.115Z,1.10
2024-04-19T22:31:06.487Z,1.50
2024-04-19T22:33:34.371Z,1.00
2024-04-19T22:36:09.046Z,1.17
2024-04-19T22:38:37.574Z,1.33
2024-04-19T22:41:05.554Z,1.03
2024-04-19T22:43:34.644Z,1.10
2024-04-19T22:46:08.313Z,1.90
2024-04-19T22:48:36.128Z,1.53
2024-04-19T22:51:03.809Z,1.60
2024-04-19T22:53:31.122Z,1.20
2024-04-19T22:55:58.432Z,1.37
2024-04-19T22:58:25.678Z,1.30
2024-04-19T23:00:53.054Z,0.93
2024-04-19T23:03:20.351Z,1.87
2024-04-19T23:05:47.659Z,0.90
2024-04-19T23:08:15.100Z,1.40
2024-04-19T23:10:42.315Z,1.20
2024-04-19T23:13:09.631Z,1.37
2024-04-19T23:15:36.972Z,1.67
2024-04-19T23:18:04.314Z,1.37
2024-04-19T23:20:31.640Z,1.23
2024-04-19T23:22:58.956Z,1.00
2024-04-19T23:25:26.245Z,1.07
2024-04-19T23:27:53.525Z,1.47
2024-04-19T23:30:20.851Z,1.50
2024-04-19T23:32:48.173Z,1.43
2024-04-19T23:35:15.662Z,1.70
2024-04-19T23:37:43.546Z,1.40
2024-04-19T23:40:10.784Z,1.30
2024-04-19T23:42:38.949Z,1.60
2024-04-19T23:45:06.543Z,1.47
2024-04-19T23:47:33.918Z,1.50
2024-04-19T23:50:02.000Z,1.57
2024-04-19T23:52:28.878Z,1.27
2024-04-19T23:54:56.298Z,1.83
2024-04-19T23:57:23.646Z,1.40
2024-04-19T23:59:50.888Z,1.17
